sensor_id;sensor_type;location;lat;lon;timestamp;temperature;humidity
8105;DHT22;4095;48.942;9.104;2023-03-12T00:00:40;3.40;92.90
8105;DHT22;4095;48.942;9.104;2023-03-12T00:03:07;3.40;93.00
8105;DHT22;4095;48.942;9.104;2023-03-12T00:05:35;3.40;92.90
8105;DHT22;4095;48.942;9.104;2023-03-12T00:08:01;3.30;93.00
8105;DHT22;4095;48.942;9.104;2023-03-12T00:10:27;3.30;92.90
8105;DHT22;4095;48.942;9.104;2023-03-12T00:12:53;3.30;93.00
8105;DHT22;4095;48.942;9.104;2023-03-12T00:15:19;3.30;93.10
8105;DHT22;4095;48.942;9.104;2023-03-12T00:17:45;3.30;93.10
8105;DHT22;4095;48.942;9.104;2023-03-12T00:20:11;3.30;93.00
8105;DHT22;4095;48.942;9.104;2023-03-12T00:22:37;3.30;93.00
8105;DHT22;4095;48.942;9.104;2023-03-12T00:25:05;3.20;92.90
8105;DHT22;4095;48.942;9.104;2023-03-12T00:27:31;3.20;92.80
8105;DHT22;4095;48.942;9.104;2023-03-12T00:29:57;3.20;92.90
8105;DHT22;4095;48.942;9.104;2023-03-12T00:32:23;3.20;92.90
8105;DHT22;4095;48.942;9.104;2023-03-12T00:34:53;3.20;93.10
8105;DHT22;4095;48.942;9.104;2023-03-12T00:37:19;3.20;92.90
8105;DHT22;4095;48.942;9.104;2023-03-12T00:39:44;3.10;93.10
8105;DHT22;4095;48.942;9.104;2023-03-12T00:42:11;3.00;93.00
8105;DHT22;4095;48.942;9.104;2023-03-12T00:44:36;3.00;93.20
8105;DHT22;4095;48.942;9.104;2023-03-12T00:47:02;3.00;93.30
8105;DHT22;4095;48.942;9.104;2023-03-12T00:49:28;2.90;93.20
8105;DHT22;4095;48.942;9.104;2023-03-12T00:51:53;2.90;93.20
8105;DHT22;4095;48.942;9.104;2023-03-12T00:54:20;2.90;93.10
8105;DHT22;4095;48.942;9.104;2023-03-12T00:56:46;2.90;93.20
8105;DHT22;4095;48.942;9.104;2023-03-12T00:59:12;2.90;93.20
8105;DHT22;4095;48.942;9.104;2023-03-12T01:01:38;2.90;93.10
8105;DHT22;4095;48.942;9.104;2023-03-12T01:04:04;2.90;93.10
8105;DHT22;4095;48.942;9.104;2023-03-12T01:06:30;2.80;93.40
8105;DHT22;4095;48.942;9.104;2023-03-12T01:08:55;2.80;93.40
8105;DHT22;4095;48.942;9.104;2023-03-12T01:11:22;2.80;93.40
8105;DHT22;4095;48.942;9.104;2023-03-12T01:13:48;2.80;93.30
8105;DHT22;4095;48.942;9.104;2023-03-12T01:16:13;2.80;93.30
8105;DHT22;4095;48.942;9.104;2023-03-12T01:18:39;2.90;93.50
8105;DHT22;4095;48.942;9.104;2023-03-12T01:21:05;2.90;93.50
8105;DHT22;4095;48.942;9.104;2023-03-12T01:23:30;2.90;93.50
8105;DHT22;4095;48.942;9.104;2023-03-12T01:25:56;2.90;93.60
8105;DHT22;4095;48.942;9.104;2023-03-12T01:28:23;2.90;93.50
8105;DHT22;4095;48.942;9.104;2023-03-12T01:30:49;2.90;93.60
8105;DHT22;4095;48.942;9.104;2023-03-12T01:33:15;2.90;93.30
8105;DHT22;4095;48.942;9.104;2023-03-12T01:35:41;2.90;93.40
8105;DHT22;4095;48.942;9.104;2023-03-12T01:38:10;2.90;93.50
8105;DHT22;4095;48.942;9.104;2023-03-12T01:40:37;3.00;93.60
8105;DHT22;4095;48.942;9.104;2023-03-12T01:48:27;3.00;93.90
8105;DHT22;4095;48.942;9.104;2023-03-12T01:50:54;3.00;94.00
8105;DHT22;4095;48.942;9.104;2023-03-12T01:53:21;3.10;93.90
8105;DHT22;4095;48.942;9.104;2023-03-12T01:55:47;3.10;93.90
8105;DHT22;4095;48.942;9.104;2023-03-12T01:58:13;3.10;93.90
8105;DHT22;4095;48.942;9.104;2023-03-12T02:00:39;3.20;94.20
8105;DHT22;4095;48.942;9.104;2023-03-12T02:03:07;3.20;94.00
8105;DHT22;4095;48.942;9.104;2023-03-12T02:05:57;3.10;93.90
8105;DHT22;4095;48.942;9.104;2023-03-12T02:08:25;3.10;94.20
8105;DHT22;4095;48.942;9.104;2023-03-12T02:10:50;3.00;94.10
8105;DHT22;4095;48.942;9.104;2023-03-12T02:13:17;2.90;94.20
8105;DHT22;4095;48.942;9.104;2023-03-12T02:15:42;2.90;94.50
8105;DHT22;4095;48.942;9.104;2023-03-12T02:18:11;3.00;94.70
8105;DHT22;4095;48.942;9.104;2023-03-12T02:25:50;3.00;94.70
8105;DHT22;4095;48.942;9.104;2023-03-12T02:28:19;3.00;94.80
8105;DHT22;4095;48.942;9.104;2023-03-12T02:30:49;3.00;94.70
8105;DHT22;4095;48.942;9.104;2023-03-12T02:33:15;3.00;94.60
8105;DHT22;4095;48.942;9.104;2023-03-12T02:35:42;3.10;94.70
8105;DHT22;4095;48.942;9.104;2023-03-12T02:41:06;3.10;94.70
8105;DHT22;4095;48.942;9.104;2023-03-12T02:43:34;3.10;94.60
8105;DHT22;4095;48.942;9.104;2023-03-12T02:46:00;3.10;94.70
8105;DHT22;4095;48.942;9.104;2023-03-12T02:48:25;3.20;94.80
8105;DHT22;4095;48.942;9.104;2023-03-12T02:50:51;3.20;94.80
8105;DHT22;4095;48.942;9.104;2023-03-12T02:53:16;3.20;94.80
8105;DHT22;4095;48.942;9.104;2023-03-12T02:55:42;3.20;94.80
8105;DHT22;4095;48.942;9.104;2023-03-12T02:58:07;3.20;94.70
8105;DHT22;4095;48.942;9.104;2023-03-12T03:00:33;3.20;94.60
8105;DHT22;4095;48.942;9.104;2023-03-12T03:03:00;3.20;94.70
8105;DHT22;4095;48.942;9.104;2023-03-12T03:05:26;3.20;94.90
8105;DHT22;4095;48.942;9.104;2023-03-12T03:07:51;3.20;94.70
8105;DHT22;4095;48.942;9.104;2023-03-12T03:10:17;3.20;94.60
8105;DHT22;4095;48.942;9.104;2023-03-12T03:12:43;3.20;94.60
8105;DHT22;4095;48.942;9.104;2023-03-12T03:15:10;3.10;94.70
8105;DHT22;4095;48.942;9.104;2023-03-12T03:17:36;3.10;94.70
8105;DHT22;4095;48.942;9.104;2023-03-12T03:20:03;3.00;94.80
8105;DHT22;4095;48.942;9.104;2023-03-12T03:22:32;3.00;95.00
8105;DHT22;4095;48.942;9.104;2023-03-12T03:24:58;3.20;95.20
8105;DHT22;4095;48.942;9.104;2023-03-12T03:27:24;3.20;95.10
8105;DHT22;4095;48.942;9.104;2023-03-12T03:29:49;3.20;95.00
8105;DHT22;4095;48.942;9.104;2023-03-12T03:32:15;3.30;95.00
8105;DHT22;4095;48.942;9.104;2023-03-12T03:34:40;3.30;95.00
8105;DHT22;4095;48.942;9.104;2023-03-12T03:37:06;3.30;95.10
8105;DHT22;4095;48.942;9.104;2023-03-12T03:39:32;3.30;95.10
8105;DHT22;4095;48.942;9.104;2023-03-12T03:41:59;3.30;95.00
8105;DHT22;4095;48.942;9.104;2023-03-12T03:44:25;3.30;95.10
8105;DHT22;4095;48.942;9.104;2023-03-12T03:46:50;3.40;95.30
8105;DHT22;4095;48.942;9.104;2023-03-12T03:49:17;3.40;95.40
8105;DHT22;4095;48.942;9.104;2023-03-12T03:51:43;3.50;95.40
8105;DHT22;4095;48.942;9.104;2023-03-12T03:54:09;3.50;95.40
8105;DHT22;4095;48.942;9.104;2023-03-12T03:56:35;3.50;95.40
8105;DHT22;4095;48.942;9.104;2023-03-12T03:59:01;3.60;95.40
8105;DHT22;4095;48.942;9.104;2023-03-12T04:01:27;3.60;95.20
8105;DHT22;4095;48.942;9.104;2023-03-12T04:03:53;3.70;95.20
8105;DHT22;4095;48.942;9.104;2023-03-12T04:06:18;3.70;95.10
8105;DHT22;4095;48.942;9.104;2023-03-12T04:08:44;3.70;95.20
8105;DHT22;4095;48.942;9.104;2023-03-12T04:11:16;3.70;95.10
8105;DHT22;4095;48.942;9.104;2023-03-12T04:13:42;3.70;95.00
8105;DHT22;4095;48.942;9.104;2023-03-12T04:16:08;3.70;95.00
8105;DHT22;4095;48.942;9.104;2023-03-12T04:18:34;3.70;95.00
8105;DHT22;4095;48.942;9.104;2023-03-12T04:21:05;3.70;95.00
8105;DHT22;4095;48.942;9.104;2023-03-12T04:23:31;3.70;95.00
8105;DHT22;4095;48.942;9.104;2023-03-12T04:25:58;3.70;95.20
8105;DHT22;4095;48.942;9.104;2023-03-12T04:28:24;3.70;95.30
8105;DHT22;4095;48.942;9.104;2023-03-12T04:30:57;3.70;95.20
8105;DHT22;4095;48.942;9.104;2023-03-12T04:33:27;3.80;95.20
8105;DHT22;4095;48.942;9.104;2023-03-12T04:35:53;3.80;95.20
8105;DHT22;4095;48.942;9.104;2023-03-12T04:38:21;3.80;95.10
8105;DHT22;4095;48.942;9.104;2023-03-12T04:43:24;3.90;95.10
8105;DHT22;4095;48.942;9.104;2023-03-12T04:45:50;3.90;95.10
8105;DHT22;4095;48.942;9.104;2023-03-12T04:48:15;4.00;95.10
8105;DHT22;4095;48.942;9.104;2023-03-12T04:50:41;4.00;94.90
8105;DHT22;4095;48.942;9.104;2023-03-12T04:53:07;4.00;94.90
8105;DHT22;4095;48.942;9.104;2023-03-12T04:55:33;4.00;94.90
8105;DHT22;4095;48.942;9.104;2023-03-12T04:57:58;4.00;94.90
8105;DHT22;4095;48.942;9.104;2023-03-12T05:00:24;4.10;94.90
8105;DHT22;4095;48.942;9.104;2023-03-12T05:02:51;4.10;94.80
8105;DHT22;4095;48.942;9.104;2023-03-12T05:05:17;4.10;94.70
8105;DHT22;4095;48.942;9.104;2023-03-12T05:07:43;4.10;94.80
8105;DHT22;4095;48.942;9.104;2023-03-12T05:10:09;4.10;94.70
8105;DHT22;4095;48.942;9.104;2023-03-12T05:12:34;4.10;95.00
8105;DHT22;4095;48.942;9.104;2023-03-12T05:15:00;4.20;95.00
8105;DHT22;4095;48.942;9.104;2023-03-12T05:17:26;4.20;95.00
8105;DHT22;4095;48.942;9.104;2023-03-12T05:19:51;4.20;94.90
8105;DHT22;4095;48.942;9.104;2023-03-12T05:22:17;4.20;94.80
8105;DHT22;4095;48.942;9.104;2023-03-12T05:24:42;4.20;94.80
8105;DHT22;4095;48.942;9.104;2023-03-12T05:27:08;4.30;94.70
8105;DHT22;4095;48.942;9.104;2023-03-12T05:29:34;4.30;94.90
8105;DHT22;4095;48.942;9.104;2023-03-12T05:32:00;4.30;94.80
8105;DHT22;4095;48.942;9.104;2023-03-12T05:34:26;4.30;94.90
8105;DHT22;4095;48.942;9.104;2023-03-12T05:36:55;4.30;94.90
8105;DHT22;4095;48.942;9.104;2023-03-12T05:39:21;4.30;94.80
8105;DHT22;4095;48.942;9.104;2023-03-12T05:41:46;4.30;94.90
8105;DHT22;4095;48.942;9.104;2023-03-12T05:44:12;4.30;94.80
8105;DHT22;4095;48.942;9.104;2023-03-12T05:46:43;4.30;95.00
8105;DHT22;4095;48.942;9.104;2023-03-12T05:49:09;4.30;94.80
8105;DHT22;4095;48.942;9.104;2023-03-12T05:51:35;4.30;94.90
8105;DHT22;4095;48.942;9.104;2023-03-12T05:54:01;4.30;94.70
8105;DHT22;4095;48.942;9.104;2023-03-12T05:56:27;4.30;94.40
8105;DHT22;4095;48.942;9.104;2023-03-12T05:58:52;4.30;94.40
8105;DHT22;4095;48.942;9.104;2023-03-12T06:01:24;4.40;94.40
8105;DHT22;4095;48.942;9.104;2023-03-12T06:03:50;4.40;94.60
8105;DHT22;4095;48.942;9.104;2023-03-12T06:06:16;4.40;94.80
8105;DHT22;4095;48.942;9.104;2023-03-12T06:08:42;4.50;95.20
8105;DHT22;4095;48.942;9.104;2023-03-12T06:11:08;4.50;95.40
8105;DHT22;4095;48.942;9.104;2023-03-12T06:13:33;4.50;95.30
8105;DHT22;4095;48.942;9.104;2023-03-12T06:16:08;4.50;95.20
8105;DHT22;4095;48.942;9.104;2023-03-12T06:18:35;4.50;95.50
8105;DHT22;4095;48.942;9.104;2023-03-12T06:21:14;4.60;95.80
8105;DHT22;4095;48.942;9.104;2023-03-12T06:23:41;4.60;96.00
8105;DHT22;4095;48.942;9.104;2023-03-12T06:26:08;4.60;95.90
8105;DHT22;4095;48.942;9.104;2023-03-12T06:28:34;4.70;96.10
8105;DHT22;4095;48.942;9.104;2023-03-12T06:31:01;4.70;95.90
8105;DHT22;4095;48.942;9.104;2023-03-12T06:33:27;4.70;95.60
8105;DHT22;4095;48.942;9.104;2023-03-12T06:35:54;4.70;95.70
8105;DHT22;4095;48.942;9.104;2023-03-12T06:38:20;4.80;95.70
8105;DHT22;4095;48.942;9.104;2023-03-12T06:41:07;4.80;95.70
8105;DHT22;4095;48.942;9.104;2023-03-12T06:43:34;4.90;95.80
8105;DHT22;4095;48.942;9.104;2023-03-12T06:46:00;4.90;95.80
8105;DHT22;4095;48.942;9.104;2023-03-12T06:48:28;4.90;95.90
8105;DHT22;4095;48.942;9.104;2023-03-12T06:50:54;4.90;95.90
8105;DHT22;4095;48.942;9.104;2023-03-12T06:53:20;5.00;95.80
8105;DHT22;4095;48.942;9.104;2023-03-12T06:55:48;5.00;96.00
8105;DHT22;4095;48.942;9.104;2023-03-12T06:58:14;5.10;96.10
8105;DHT22;4095;48.942;9.104;2023-03-12T07:00:40;5.10;95.80
8105;DHT22;4095;48.942;9.104;2023-03-12T07:03:06;5.10;96.00
8105;DHT22;4095;48.942;9.104;2023-03-12T07:05:31;5.10;96.10
8105;DHT22;4095;48.942;9.104;2023-03-12T07:07:57;5.20;96.30
8105;DHT22;4095;48.942;9.104;2023-03-12T07:10:23;5.20;96.40
8105;DHT22;4095;48.942;9.104;2023-03-12T07:12:49;5.20;96.80
8105;DHT22;4095;48.942;9.104;2023-03-12T07:15:15;5.20;97.20
8105;DHT22;4095;48.942;9.104;2023-03-12T07:17:41;5.30;97.40
8105;DHT22;4095;48.942;9.104;2023-03-12T07:20:07;5.20;97.50
8105;DHT22;4095;48.942;9.104;2023-03-12T07:22:32;5.20;97.50
8105;DHT22;4095;48.942;9.104;2023-03-12T07:24:58;5.30;97.80
8105;DHT22;4095;48.942;9.104;2023-03-12T07:27:24;5.30;98.00
8105;DHT22;4095;48.942;9.104;2023-03-12T07:29:49;5.30;98.10
8105;DHT22;4095;48.942;9.104;2023-03-12T07:32:15;5.30;98.20
8105;DHT22;4095;48.942;9.104;2023-03-12T07:34:41;5.30;98.30
8105;DHT22;4095;48.942;9.104;2023-03-12T07:37:07;5.40;98.30
8105;DHT22;4095;48.942;9.104;2023-03-12T07:39:33;5.40;98.30
8105;DHT22;4095;48.942;9.104;2023-03-12T07:41:58;5.50;98.30
8105;DHT22;4095;48.942;9.104;2023-03-12T07:44:24;5.50;98.30
8105;DHT22;4095;48.942;9.104;2023-03-12T07:46:51;5.50;98.50
8105;DHT22;4095;48.942;9.104;2023-03-12T07:49:17;5.60;98.50
8105;DHT22;4095;48.942;9.104;2023-03-12T07:51:42;5.60;98.60
8105;DHT22;4095;48.942;9.104;2023-03-12T07:54:08;5.70;98.50
8105;DHT22;4095;48.942;9.104;2023-03-12T07:56:33;5.70;98.60
8105;DHT22;4095;48.942;9.104;2023-03-12T07:58:59;5.80;98.50
8105;DHT22;4095;48.942;9.104;2023-03-12T08:01:24;5.80;98.50
8105;DHT22;4095;48.942;9.104;2023-03-12T08:03:59;5.90;98.60
8105;DHT22;4095;48.942;9.104;2023-03-12T08:06:25;6.00;98.50
8105;DHT22;4095;48.942;9.104;2023-03-12T08:08:51;6.00;98.50
8105;DHT22;4095;48.942;9.104;2023-03-12T08:11:17;6.10;98.70
8105;DHT22;4095;48.942;9.104;2023-03-12T08:13:43;6.10;98.70
8105;DHT22;4095;48.942;9.104;2023-03-12T08:16:08;6.20;98.80
8105;DHT22;4095;48.942;9.104;2023-03-12T08:18:34;6.20;99.00
8105;DHT22;4095;48.942;9.104;2023-03-12T08:21:00;6.20;99.10
8105;DHT22;4095;48.942;9.104;2023-03-12T08:23:25;6.30;99.30
8105;DHT22;4095;48.942;9.104;2023-03-12T08:25:52;6.40;99.50
8105;DHT22;4095;48.942;9.104;2023-03-12T08:28:20;6.40;99.50
8105;DHT22;4095;48.942;9.104;2023-03-12T08:30:51;6.40;99.70
8105;DHT22;4095;48.942;9.104;2023-03-12T08:33:18;6.50;99.90
8105;DHT22;4095;48.942;9.104;2023-03-12T08:35:44;6.60;99.90
8105;DHT22;4095;48.942;9.104;2023-03-12T08:38:09;6.70;99.90
8105;DHT22;4095;48.942;9.104;2023-03-12T08:40:35;6.70;99.90
8105;DHT22;4095;48.942;9.104;2023-03-12T08:43:01;6.70;99.90
8105;DHT22;4095;48.942;9.104;2023-03-12T08:45:26;6.70;99.90
8105;DHT22;4095;48.942;9.104;2023-03-12T08:47:52;6.80;99.90
8105;DHT22;4095;48.942;9.104;2023-03-12T08:50:18;6.80;99.90
8105;DHT22;4095;48.942;9.104;2023-03-12T08:52:46;6.90;99.90
8105;DHT22;4095;48.942;9.104;2023-03-12T08:55:12;6.90;99.90
8105;DHT22;4095;48.942;9.104;2023-03-12T08:57:39;6.90;99.90
8105;DHT22;4095;48.942;9.104;2023-03-12T09:00:06;7.00;99.90
8105;DHT22;4095;48.942;9.104;2023-03-12T09:02:36;7.10;99.90
8105;DHT22;4095;48.942;9.104;2023-03-12T09:05:02;7.10;99.90
8105;DHT22;4095;48.942;9.104;2023-03-12T09:07:29;7.10;99.90
8105;DHT22;4095;48.942;9.104;2023-03-12T09:09:54;7.20;99.90
8105;DHT22;4095;48.942;9.104;2023-03-12T09:12:20;7.20;99.90
8105;DHT22;4095;48.942;9.104;2023-03-12T09:14:46;7.20;99.90
8105;DHT22;4095;48.942;9.104;2023-03-12T09:17:11;7.20;99.90
8105;DHT22;4095;48.942;9.104;2023-03-12T09:19:38;7.20;99.90
8105;DHT22;4095;48.942;9.104;2023-03-12T09:22:04;7.20;99.90
8105;DHT22;4095;48.942;9.104;2023-03-12T09:24:29;7.30;99.90
8105;DHT22;4095;48.942;9.104;2023-03-12T09:26:55;7.30;99.90
8105;DHT22;4095;48.942;9.104;2023-03-12T09:29:21;7.40;99.90
8105;DHT22;4095;48.942;9.104;2023-03-12T09:31:47;7.40;99.90
8105;DHT22;4095;48.942;9.104;2023-03-12T09:34:13;7.50;99.90
8105;DHT22;4095;48.942;9.104;2023-03-12T09:36:39;7.50;99.90
8105;DHT22;4095;48.942;9.104;2023-03-12T09:39:04;7.50;99.90
8105;DHT22;4095;48.942;9.104;2023-03-12T09:41:34;7.60;99.90
8105;DHT22;4095;48.942;9.104;2023-03-12T09:44:11;7.60;99.90
8105;DHT22;4095;48.942;9.104;2023-03-12T09:46:56;7.60;99.90
8105;DHT22;4095;48.942;9.104;2023-03-12T09:49:45;7.70;99.90
8105;DHT22;4095;48.942;9.104;2023-03-12T09:57:41;7.90;99.90
8105;DHT22;4095;48.942;9.104;2023-03-12T10:00:12;8.00;99.90
8105;DHT22;4095;48.942;9.104;2023-03-12T10:06:10;8.10;99.90
8105;DHT22;4095;48.942;9.104;2023-03-12T10:08:55;8.20;99.90
8105;DHT22;4095;48.942;9.104;2023-03-12T10:25:06;8.40;99.90
8105;DHT22;4095;48.942;9.104;2023-03-12T10:27:35;8.50;99.90
8105;DHT22;4095;48.942;9.104;2023-03-12T10:30:02;8.60;99.90
8105;DHT22;4095;48.942;9.104;2023-03-12T10:32:36;8.60;99.90
8105;DHT22;4095;48.942;9.104;2023-03-12T10:35:19;8.60;99.90
8105;DHT22;4095;48.942;9.104;2023-03-12T10:40:19;8.70;99.90
8105;DHT22;4095;48.942;9.104;2023-03-12T10:42:45;8.80;99.90
8105;DHT22;4095;48.942;9.104;2023-03-12T10:45:23;8.80;99.90
8105;DHT22;4095;48.942;9.104;2023-03-12T10:47:54;8.80;99.90
8105;DHT22;4095;48.942;9.104;2023-03-12T10:50:30;8.80;99.90
8105;DHT22;4095;48.942;9.104;2023-03-12T10:53:19;8.90;99.90
8105;DHT22;4095;48.942;9.104;2023-03-12T10:58:25;9.00;99.90
8105;DHT22;4095;48.942;9.104;2023-03-12T11:00:58;9.10;99.90
8105;DHT22;4095;48.942;9.104;2023-03-12T11:03:26;9.10;99.90
8105;DHT22;4095;48.942;9.104;2023-03-12T11:05:54;9.20;99.90
8105;DHT22;4095;48.942;9.104;2023-03-12T11:08:24;9.30;99.90
8105;DHT22;4095;48.942;9.104;2023-03-12T11:10:52;9.30;99.90
8105;DHT22;4095;48.942;9.104;2023-03-12T11:18:34;9.70;99.90
8105;DHT22;4095;48.942;9.104;2023-03-12T11:23:36;10.30;99.90
8105;DHT22;4095;48.942;9.104;2023-03-12T11:26:18;10.60;99.90
8105;DHT22;4095;48.942;9.104;2023-03-12T11:28:48;10.70;99.90
8105;DHT22;4095;48.942;9.104;2023-03-12T11:31:40;11.00;99.90
8105;DHT22;4095;48.942;9.104;2023-03-12T11:34:20;11.80;99.90
8105;DHT22;4095;48.942;9.104;2023-03-12T11:45:17;12.20;99.90
8105;DHT22;4095;48.942;9.104;2023-03-12T11:50:49;12.60;99.90
8105;DHT22;4095;48.942;9.104;2023-03-12T11:58:59;12.20;99.90
8105;DHT22;4095;48.942;9.104;2023-03-12T12:09:29;12.70;99.90
8105;DHT22;4095;48.942;9.104;2023-03-12T12:12:10;13.60;99.90
8105;DHT22;4095;48.942;9.104;2023-03-12T12:20:23;15.90;97.60
8105;DHT22;4095;48.942;9.104;2023-03-12T12:23:32;15.40;98.40
8105;DHT22;4095;48.942;9.104;2023-03-12T12:26:09;15.20;99.10
8105;DHT22;4095;48.942;9.104;2023-03-12T12:34:10;15.20;98.30
8105;DHT22;4095;48.942;9.104;2023-03-12T12:36:38;15.10;98.20
8105;DHT22;4095;48.942;9.104;2023-03-12T12:41:35;14.50;98.20
8105;DHT22;4095;48.942;9.104;2023-03-12T12:44:04;14.50;98.70
8105;DHT22;4095;48.942;9.104;2023-03-12T12:46:54;14.70;98.60
8105;DHT22;4095;48.942;9.104;2023-03-12T12:49:42;14.80;97.90
8105;DHT22;4095;48.942;9.104;2023-03-12T12:52:11;14.70;97.90
8105;DHT22;4095;48.942;9.104;2023-03-12T12:57:41;14.20;97.80
8105;DHT22;4095;48.942;9.104;2023-03-12T13:02:56;13.80;98.60
8105;DHT22;4095;48.942;9.104;2023-03-12T13:08:56;13.60;98.90
8105;DHT22;4095;48.942;9.104;2023-03-12T13:11:39;13.60;98.90
8105;DHT22;4095;48.942;9.104;2023-03-12T13:14:12;13.60;98.80
8105;DHT22;4095;48.942;9.104;2023-03-12T13:16:42;13.60;99.10
8105;DHT22;4095;48.942;9.104;2023-03-12T13:22:07;13.50;99.10
8105;DHT22;4095;48.942;9.104;2023-03-12T13:27:29;13.80;99.50
8105;DHT22;4095;48.942;9.104;2023-03-12T13:29:56;14.30;99.10
8105;DHT22;4095;48.942;9.104;2023-03-12T13:45:28;13.80;97.60
8105;DHT22;4095;48.942;9.104;2023-03-12T13:47:58;14.00;98.10
8105;DHT22;4095;48.942;9.104;2023-03-12T13:50:25;14.40;97.50
8105;DHT22;4095;48.942;9.104;2023-03-12T13:53:07;14.70;96.80
8105;DHT22;4095;48.942;9.104;2023-03-12T13:55:39;14.60;96.70
8105;DHT22;4095;48.942;9.104;2023-03-12T13:58:12;14.40;96.90
8105;DHT22;4095;48.942;9.104;2023-03-12T14:00:51;14.20;97.20
8105;DHT22;4095;48.942;9.104;2023-03-12T14:05:56;13.90;97.50
8105;DHT22;4095;48.942;9.104;2023-03-12T14:19:04;13.50;98.80
8105;DHT22;4095;48.942;9.104;2023-03-12T14:21:36;13.50;98.50
8105;DHT22;4095;48.942;9.104;2023-03-12T14:24:06;13.50;98.40
8105;DHT22;4095;48.942;9.104;2023-03-12T14:26:34;13.60;98.00
8105;DHT22;4095;48.942;9.104;2023-03-12T14:29:12;13.60;98.00
8105;DHT22;4095;48.942;9.104;2023-03-12T14:31:42;13.70;97.90
8105;DHT22;4095;48.942;9.104;2023-03-12T14:36:39;14.40;97.60
8105;DHT22;4095;48.942;9.104;2023-03-12T14:42:06;14.70;96.40
8105;DHT22;4095;48.942;9.104;2023-03-12T14:44:35;14.60;96.00
8105;DHT22;4095;48.942;9.104;2023-03-12T14:47:06;14.50;96.00
8105;DHT22;4095;48.942;9.104;2023-03-12T14:49:43;14.50;96.10
8105;DHT22;4095;48.942;9.104;2023-03-12T14:52:20;14.50;95.70
8105;DHT22;4095;48.942;9.104;2023-03-12T14:55:01;14.50;95.80
8105;DHT22;4095;48.942;9.104;2023-03-12T14:57:27;14.50;95.80
8105;DHT22;4095;48.942;9.104;2023-03-12T14:59:54;14.70;95.50
8105;DHT22;4095;48.942;9.104;2023-03-12T15:02:21;14.80;95.50
8105;DHT22;4095;48.942;9.104;2023-03-12T15:04:48;14.90;94.60
8105;DHT22;4095;48.942;9.104;2023-03-12T15:07:18;15.20;94.50
8105;DHT22;4095;48.942;9.104;2023-03-12T15:09:49;15.20;93.70
8105;DHT22;4095;48.942;9.104;2023-03-12T15:14:44;14.70;93.80
8105;DHT22;4095;48.942;9.104;2023-03-12T15:17:17;14.50;94.00
8105;DHT22;4095;48.942;9.104;2023-03-12T15:19:43;14.40;94.30
8105;DHT22;4095;48.942;9.104;2023-03-12T15:22:20;14.30;94.40
8105;DHT22;4095;48.942;9.104;2023-03-12T15:24:47;14.20;94.60
8105;DHT22;4095;48.942;9.104;2023-03-12T15:27:31;14.10;94.50
8105;DHT22;4095;48.942;9.104;2023-03-12T15:29:58;14.00;94.80
8105;DHT22;4095;48.942;9.104;2023-03-12T15:32:25;14.00;94.80
8105;DHT22;4095;48.942;9.104;2023-03-12T15:34:52;13.90;94.70
8105;DHT22;4095;48.942;9.104;2023-03-12T15:37:32;13.90;94.70
8105;DHT22;4095;48.942;9.104;2023-03-12T15:40:28;13.90;94.70
8105;DHT22;4095;48.942;9.104;2023-03-12T15:42:55;13.90;94.90
8105;DHT22;4095;48.942;9.104;2023-03-12T15:45:38;13.90;94.90
8105;DHT22;4095;48.942;9.104;2023-03-12T15:48:25;13.80;94.80
8105;DHT22;4095;48.942;9.104;2023-03-12T15:50:52;13.80;94.90
8105;DHT22;4095;48.942;9.104;2023-03-12T15:56:04;13.80;94.80
8105;DHT22;4095;48.942;9.104;2023-03-12T15:58:32;13.80;95.20
8105;DHT22;4095;48.942;9.104;2023-03-12T16:01:15;13.80;95.30
8105;DHT22;4095;48.942;9.104;2023-03-12T16:03:43;13.80;95.00
8105;DHT22;4095;48.942;9.104;2023-03-12T16:06:36;13.70;95.10
8105;DHT22;4095;48.942;9.104;2023-03-12T16:09:02;13.70;95.10
8105;DHT22;4095;48.942;9.104;2023-03-12T16:11:31;13.80;95.20
8105;DHT22;4095;48.942;9.104;2023-03-12T16:16:37;13.80;95.20
8105;DHT22;4095;48.942;9.104;2023-03-12T16:19:19;13.80;95.10
8105;DHT22;4095;48.942;9.104;2023-03-12T16:21:45;13.80;95.30
8105;DHT22;4095;48.942;9.104;2023-03-12T16:24:11;13.70;95.40
8105;DHT22;4095;48.942;9.104;2023-03-12T16:26:52;13.70;95.40
8105;DHT22;4095;48.942;9.104;2023-03-12T16:29:20;13.70;95.50
8105;DHT22;4095;48.942;9.104;2023-03-12T16:31:53;13.70;95.10
8105;DHT22;4095;48.942;9.104;2023-03-12T16:34:19;13.60;95.20
8105;DHT22;4095;48.942;9.104;2023-03-12T16:36:44;13.70;95.30
8105;DHT22;4095;48.942;9.104;2023-03-12T16:39:10;13.70;95.10
8105;DHT22;4095;48.942;9.104;2023-03-12T16:41:36;13.60;95.10
8105;DHT22;4095;48.942;9.104;2023-03-12T16:44:02;13.60;95.20
8105;DHT22;4095;48.942;9.104;2023-03-12T16:46:30;13.60;95.30
8105;DHT22;4095;48.942;9.104;2023-03-12T16:48:57;13.60;95.30
8105;DHT22;4095;48.942;9.104;2023-03-12T16:51:23;13.60;95.20
8105;DHT22;4095;48.942;9.104;2023-03-12T16:53:49;13.60;95.30
8105;DHT22;4095;48.942;9.104;2023-03-12T16:56:16;13.60;95.30
8105;DHT22;4095;48.942;9.104;2023-03-12T16:58:44;13.60;95.30
8105;DHT22;4095;48.942;9.104;2023-03-12T17:01:16;13.60;95.40
8105;DHT22;4095;48.942;9.104;2023-03-12T17:03:43;13.60;95.30
8105;DHT22;4095;48.942;9.104;2023-03-12T17:06:20;13.60;95.50
8105;DHT22;4095;48.942;9.104;2023-03-12T17:08:46;13.70;95.60
8105;DHT22;4095;48.942;9.104;2023-03-12T17:11:28;13.70;95.50
8105;DHT22;4095;48.942;9.104;2023-03-12T17:13:57;13.60;95.40
8105;DHT22;4095;48.942;9.104;2023-03-12T17:16:23;13.60;95.50
8105;DHT22;4095;48.942;9.104;2023-03-12T17:18:49;13.70;95.70
8105;DHT22;4095;48.942;9.104;2023-03-12T17:21:16;13.60;95.70
8105;DHT22;4095;48.942;9.104;2023-03-12T17:23:42;13.60;95.60
8105;DHT22;4095;48.942;9.104;2023-03-12T17:26:08;13.50;95.70
8105;DHT22;4095;48.942;9.104;2023-03-12T17:28:35;13.50;95.50
8105;DHT22;4095;48.942;9.104;2023-03-12T17:31:00;13.40;95.60
8105;DHT22;4095;48.942;9.104;2023-03-12T17:33:26;13.30;95.50
8105;DHT22;4095;48.942;9.104;2023-03-12T17:36:00;13.30;95.80
8105;DHT22;4095;48.942;9.104;2023-03-12T17:38:26;13.20;95.70
8105;DHT22;4095;48.942;9.104;2023-03-12T17:40:52;13.20;95.70
8105;DHT22;4095;48.942;9.104;2023-03-12T17:43:17;13.10;95.60
8105;DHT22;4095;48.942;9.104;2023-03-12T17:45:43;13.00;95.60
8105;DHT22;4095;48.942;9.104;2023-03-12T17:48:09;13.00;95.50
8105;DHT22;4095;48.942;9.104;2023-03-12T17:50:34;13.00;95.40
8105;DHT22;4095;48.942;9.104;2023-03-12T17:53:00;13.00;95.40
8105;DHT22;4095;48.942;9.104;2023-03-12T17:55:26;13.00;95.40
8105;DHT22;4095;48.942;9.104;2023-03-12T17:57:51;13.00;95.30
8105;DHT22;4095;48.942;9.104;2023-03-12T18:00:17;13.00;95.20
8105;DHT22;4095;48.942;9.104;2023-03-12T18:02:45;13.00;95.10
8105;DHT22;4095;48.942;9.104;2023-03-12T18:05:11;13.10;95.20
8105;DHT22;4095;48.942;9.104;2023-03-12T18:07:37;13.10;95.00
8105;DHT22;4095;48.942;9.104;2023-03-12T18:10:04;13.10;94.90
8105;DHT22;4095;48.942;9.104;2023-03-12T18:12:30;13.10;94.90
8105;DHT22;4095;48.942;9.104;2023-03-12T18:14:57;13.10;94.90
8105;DHT22;4095;48.942;9.104;2023-03-12T18:17:22;13.10;94.80
8105;DHT22;4095;48.942;9.104;2023-03-12T18:19:48;13.10;94.70
8105;DHT22;4095;48.942;9.104;2023-03-12T18:22:14;13.10;94.60
8105;DHT22;4095;48.942;9.104;2023-03-12T18:24:41;13.10;94.60
8105;DHT22;4095;48.942;9.104;2023-03-12T18:27:07;13.10;94.60
8105;DHT22;4095;48.942;9.104;2023-03-12T18:29:33;13.10;94.60
8105;DHT22;4095;48.942;9.104;2023-03-12T18:32:00;13.10;94.70
8105;DHT22;4095;48.942;9.104;2023-03-12T18:34:25;13.00;94.80
8105;DHT22;4095;48.942;9.104;2023-03-12T18:36:51;13.00;94.80
8105;DHT22;4095;48.942;9.104;2023-03-12T18:39:17;13.00;94.80
8105;DHT22;4095;48.942;9.104;2023-03-12T18:41:42;13.00;95.10
8105;DHT22;4095;48.942;9.104;2023-03-12T18:44:08;13.00;95.00